KZR118 UCFM-UAAA
Flight info
| Callsign | KZR118 |
|---|---|
| Flight time | 0h 31m |
| Altitude | 19000 |
| Route | UMLOD1 UMLOD L143 BINRI Z370 EKLAT EKLAT1Z |
| Aircraft | A321/M-SDE3FGHIRWY/LB1 |
Departure
| Time | 2026-05-05 14:41 |
|---|---|
| Airport | Manas International Airport (UCFM) |
Arrival
| Time | 2026-05-05 15:12 |
|---|---|
| Airport | Almaty International Airport (UAAA) |
| Time | Latitude | Longitude | Altitude | Speed | Heading |
|---|---|---|---|---|---|
| 2026-05-05 14:11 | 43.05481 | 74.46862 | 2069 ft | 0 kts | 172° |
| 2026-05-05 14:28 | 43.05488 | 74.46860 | 2069 ft | 2 kts | 169° |
| 2026-05-05 14:28 | 43.05504 | 74.46857 | 2069 ft | 2 kts | 172° |
| 2026-05-05 14:28 | 43.05521 | 74.46854 | 2069 ft | 2 kts | 173° |
| 2026-05-05 14:29 | 43.05537 | 74.46851 | 2069 ft | 2 kts | 182° |
| 2026-05-05 14:29 | 43.05553 | 74.46857 | 2069 ft | 2 kts | 214° |
| 2026-05-05 14:29 | 43.05566 | 74.46871 | 2069 ft | 2 kts | 234° |
| 2026-05-05 14:29 | 43.05574 | 74.46891 | 2069 ft | 2 kts | 250° |
| 2026-05-05 14:30 | 43.05578 | 74.46905 | 2069 ft | 1 kts | 260° |
| 2026-05-05 14:30 | 43.05578 | 74.46906 | 2069 ft | 0 kts | 261° |
| 2026-05-05 14:33 | 43.05577 | 74.46902 | 2069 ft | 1 kts | 261° |
| 2026-05-05 14:33 | 43.05575 | 74.46884 | 2069 ft | 3 kts | 261° |
| 2026-05-05 14:33 | 43.05571 | 74.46848 | 2069 ft | 5 kts | 261° |
| 2026-05-05 14:34 | 43.05567 | 74.46816 | 2069 ft | 6 kts | 261° |
| 2026-05-05 14:34 | 43.05559 | 74.46751 | 2069 ft | 8 kts | 261° |
| 2026-05-05 14:34 | 43.05549 | 74.46667 | 2069 ft | 10 kts | 261° |
| 2026-05-05 14:34 | 43.05537 | 74.46571 | 2069 ft | 11 kts | 261° |
| 2026-05-05 14:35 | 43.05572 | 74.46504 | 2069 ft | 10 kts | 358° |
| 2026-05-05 14:35 | 43.05647 | 74.46501 | 2069 ft | 7 kts | 353° |
| 2026-05-05 14:35 | 43.05699 | 74.46493 | 2068 ft | 8 kts | 351° |
| 2026-05-05 14:35 | 43.05739 | 74.46440 | 2068 ft | 9 kts | 282° |
| 2026-05-05 14:36 | 43.05737 | 74.46369 | 2068 ft | 7 kts | 263° |
| 2026-05-05 14:36 | 43.05727 | 74.46295 | 2068 ft | 8 kts | 259° |
| 2026-05-05 14:36 | 43.05716 | 74.46210 | 2068 ft | 10 kts | 259° |
| 2026-05-05 14:36 | 43.05703 | 74.46112 | 2068 ft | 11 kts | 259° |
| 2026-05-05 14:37 | 43.05691 | 74.46004 | 2068 ft | 12 kts | 261° |
| 2026-05-05 14:37 | 43.05676 | 74.45888 | 2069 ft | 13 kts | 259° |
| 2026-05-05 14:37 | 43.05659 | 74.45766 | 2069 ft | 14 kts | 260° |
| 2026-05-05 14:37 | 43.05643 | 74.45633 | 2069 ft | 14 kts | 260° |
| 2026-05-05 14:38 | 43.05626 | 74.45494 | 2069 ft | 15 kts | 261° |
| 2026-05-05 14:38 | 43.05613 | 74.45384 | 2069 ft | 11 kts | 268° |
| 2026-05-05 14:38 | 43.05642 | 74.45290 | 2069 ft | 10 kts | 315° |
| 2026-05-05 14:38 | 43.05688 | 74.45259 | 2070 ft | 7 kts | 345° |
| 2026-05-05 14:39 | 43.05737 | 74.45245 | 2071 ft | 7 kts | 352° |
| 2026-05-05 14:39 | 43.05781 | 74.45257 | 2072 ft | 7 kts | 36° |
| 2026-05-05 14:39 | 43.05807 | 74.45304 | 2071 ft | 7 kts | 68° |
| 2026-05-05 14:39 | 43.05817 | 74.45376 | 2071 ft | 8 kts | 78° |
| 2026-05-05 14:40 | 43.05830 | 74.45462 | 2071 ft | 10 kts | 79° |
| 2026-05-05 14:40 | 43.05858 | 74.45660 | 2070 ft | 50 kts | 79° |
| 2026-05-05 14:40 | 43.05958 | 74.46452 | 2069 ft | 117 kts | 80° |
| 2026-05-05 14:40 | 43.06133 | 74.47805 | 2071 ft | 169 kts | 80° |
| 2026-05-05 14:41 | 43.06339 | 74.49580 | 2167 ft | 202 kts | 82° |
| 2026-05-05 14:41 | 43.06573 | 74.51505 | 2778 ft | 207 kts | 79° |
| 2026-05-05 14:41 | 43.06851 | 74.53449 | 3426 ft | 210 kts | 78° |
| 2026-05-05 14:41 | 43.07282 | 74.55409 | 3731 ft | 224 kts | 59° |
| 2026-05-05 14:42 | 43.08408 | 74.56969 | 3970 ft | 237 kts | 35° |
| 2026-05-05 14:42 | 43.09783 | 74.58351 | 4213 ft | 258 kts | 39° |
| 2026-05-05 14:42 | 43.11138 | 74.60093 | 4610 ft | 273 kts | 45° |
| 2026-05-05 14:42 | 43.12450 | 74.61995 | 5311 ft | 276 kts | 47° |
| 2026-05-05 14:43 | 43.13758 | 74.63936 | 6045 ft | 278 kts | 47° |
| 2026-05-05 14:43 | 43.15081 | 74.65880 | 6789 ft | 280 kts | 47° |
| 2026-05-05 14:43 | 43.16407 | 74.67803 | 7443 ft | 283 kts | 46° |
| 2026-05-05 14:43 | 43.17774 | 74.69763 | 8102 ft | 286 kts | 46° |
| 2026-05-05 14:44 | 43.19168 | 74.71738 | 8761 ft | 290 kts | 46° |
| 2026-05-05 14:44 | 43.20581 | 74.73729 | 9441 ft | 293 kts | 46° |
| 2026-05-05 14:44 | 43.22014 | 74.75730 | 10101 ft | 296 kts | 45° |
| 2026-05-05 14:44 | 43.23526 | 74.77744 | 10395 ft | 313 kts | 44° |
| 2026-05-05 14:45 | 43.25173 | 74.79864 | 10523 ft | 335 kts | 43° |
| 2026-05-05 14:45 | 43.26917 | 74.82106 | 10750 ft | 350 kts | 46° |
| 2026-05-05 14:45 | 43.28450 | 74.84725 | 11243 ft | 355 kts | 58° |
| 2026-05-05 14:45 | 43.29583 | 74.87743 | 11800 ft | 357 kts | 67° |
| 2026-05-05 14:46 | 43.30568 | 74.90890 | 12387 ft | 361 kts | 68° |
| 2026-05-05 14:46 | 43.31557 | 74.94074 | 12972 ft | 364 kts | 68° |
| 2026-05-05 14:46 | 43.32557 | 74.97293 | 13553 ft | 367 kts | 68° |
| 2026-05-05 14:46 | 43.33565 | 75.00531 | 14117 ft | 370 kts | 68° |
| 2026-05-05 14:47 | 43.34579 | 75.03794 | 14632 ft | 373 kts | 68° |
| 2026-05-05 14:47 | 43.35603 | 75.07082 | 15174 ft | 375 kts | 68° |
| 2026-05-05 14:47 | 43.36661 | 75.10371 | 15688 ft | 378 kts | 64° |
| 2026-05-05 14:47 | 43.38058 | 75.13411 | 16196 ft | 382 kts | 53° |
| 2026-05-05 14:48 | 43.39795 | 75.16198 | 16690 ft | 385 kts | 53° |
| 2026-05-05 14:48 | 43.41215 | 75.19313 | 17194 ft | 386 kts | 66° |
| 2026-05-05 14:48 | 43.42074 | 75.22804 | 17686 ft | 386 kts | 79° |
| 2026-05-05 14:48 | 43.42338 | 75.26483 | 18186 ft | 387 kts | 92° |
| 2026-05-05 14:49 | 43.42008 | 75.30154 | 18637 ft | 388 kts | 104° |
| 2026-05-05 14:49 | 43.41342 | 75.33760 | 18990 ft | 390 kts | 105° |
| 2026-05-05 14:49 | 43.40666 | 75.37378 | 19084 ft | 390 kts | 105° |
| 2026-05-05 14:49 | 43.40000 | 75.40948 | 19112 ft | 391 kts | 105° |
| 2026-05-05 14:50 | 43.39325 | 75.44565 | 19107 ft | 390 kts | 105° |
| 2026-05-05 14:50 | 43.38650 | 75.48186 | 19108 ft | 390 kts | 104° |
| 2026-05-05 14:50 | 43.38232 | 75.51871 | 19108 ft | 391 kts | 94° |
| 2026-05-05 14:50 | 43.38350 | 75.55608 | 19111 ft | 392 kts | 83° |
| 2026-05-05 14:51 | 43.39006 | 75.59255 | 19106 ft | 394 kts | 71° |
| 2026-05-05 14:51 | 43.40051 | 75.62746 | 19106 ft | 395 kts | 69° |
| 2026-05-05 14:51 | 43.41114 | 75.66221 | 19105 ft | 394 kts | 69° |
| 2026-05-05 14:51 | 43.42171 | 75.69706 | 19106 ft | 394 kts | 69° |
| 2026-05-05 14:52 | 43.43210 | 75.73146 | 19106 ft | 394 kts | 69° |
| 2026-05-05 14:52 | 43.44265 | 75.76643 | 19105 ft | 394 kts | 69° |
| 2026-05-05 14:52 | 43.45312 | 75.80130 | 19102 ft | 394 kts | 69° |
| 2026-05-05 14:52 | 43.46358 | 75.83620 | 19103 ft | 394 kts | 69° |
| 2026-05-05 14:53 | 43.47408 | 75.87107 | 19103 ft | 394 kts | 69° |
| 2026-05-05 14:53 | 43.48460 | 75.90602 | 19107 ft | 394 kts | 69° |
| 2026-05-05 14:53 | 43.49491 | 75.94039 | 19103 ft | 393 kts | 69° |
| 2026-05-05 14:53 | 43.50535 | 75.97522 | 19102 ft | 393 kts | 69° |
| 2026-05-05 14:54 | 43.51241 | 75.99876 | 19106 ft | 393 kts | 69° |
| 2026-05-05 14:54 | 43.52619 | 76.04484 | 19106 ft | 393 kts | 70° |
| 2026-05-05 14:54 | 43.53657 | 76.07967 | 19105 ft | 393 kts | 70° |
| 2026-05-05 14:54 | 43.54695 | 76.11457 | 19101 ft | 393 kts | 70° |
| 2026-05-05 14:55 | 43.55731 | 76.14944 | 19104 ft | 392 kts | 70° |
| 2026-05-05 14:55 | 43.56763 | 76.18428 | 19104 ft | 392 kts | 70° |
| 2026-05-05 14:55 | 43.57794 | 76.21911 | 19098 ft | 392 kts | 70° |
| 2026-05-05 14:55 | 43.58826 | 76.25391 | 19098 ft | 392 kts | 70° |
| 2026-05-05 14:56 | 43.59857 | 76.28872 | 19099 ft | 392 kts | 70° |
| 2026-05-05 14:56 | 43.60887 | 76.32356 | 19098 ft | 392 kts | 70° |
| 2026-05-05 14:56 | 43.61915 | 76.35838 | 19099 ft | 392 kts | 70° |
| 2026-05-05 14:56 | 43.62940 | 76.39320 | 19099 ft | 391 kts | 70° |
| 2026-05-05 14:57 | 43.63961 | 76.42802 | 19098 ft | 391 kts | 70° |
| 2026-05-05 14:57 | 43.64984 | 76.46293 | 19097 ft | 391 kts | 70° |
| 2026-05-05 14:57 | 43.66004 | 76.49771 | 19095 ft | 391 kts | 70° |
| 2026-05-05 14:57 | 43.67013 | 76.53212 | 19099 ft | 391 kts | 70° |
| 2026-05-05 14:58 | 43.68033 | 76.56691 | 19100 ft | 391 kts | 70° |
| 2026-05-05 14:58 | 43.69054 | 76.60173 | 19100 ft | 391 kts | 70° |
| 2026-05-05 14:58 | 43.70073 | 76.63653 | 19094 ft | 391 kts | 70° |
| 2026-05-05 14:58 | 43.71093 | 76.67146 | 19096 ft | 391 kts | 70° |
| 2026-05-05 14:59 | 43.72109 | 76.70634 | 19092 ft | 391 kts | 70° |
| 2026-05-05 14:59 | 43.73122 | 76.74120 | 19091 ft | 391 kts | 70° |
| 2026-05-05 14:59 | 43.74132 | 76.77607 | 19088 ft | 391 kts | 70° |
| 2026-05-05 14:59 | 43.75129 | 76.81107 | 19088 ft | 390 kts | 73° |
| 2026-05-05 15:00 | 43.75652 | 76.84745 | 19056 ft | 381 kts | 89° |
| 2026-05-05 15:00 | 43.75581 | 76.87144 | 18787 ft | 374 kts | 101° |
| 2026-05-05 15:00 | 43.74560 | 76.91660 | 17947 ft | 362 kts | 112° |
| 2026-05-05 15:00 | 43.73669 | 76.94889 | 16756 ft | 357 kts | 112° |
| 2026-05-05 15:01 | 43.72803 | 76.98021 | 16240 ft | 336 kts | 111° |
| 2026-05-05 15:01 | 43.72008 | 77.00904 | 15868 ft | 315 kts | 111° |
| 2026-05-05 15:01 | 43.71251 | 77.03662 | 15467 ft | 301 kts | 111° |
| 2026-05-05 15:01 | 43.70497 | 77.06410 | 15066 ft | 308 kts | 111° |
| 2026-05-05 15:02 | 43.69736 | 77.09178 | 14649 ft | 307 kts | 111° |
| 2026-05-05 15:02 | 43.68981 | 77.11923 | 14240 ft | 305 kts | 111° |
| 2026-05-05 15:02 | 43.68231 | 77.14662 | 13830 ft | 304 kts | 111° |
| 2026-05-05 15:02 | 43.67483 | 77.17393 | 13382 ft | 302 kts | 111° |
| 2026-05-05 15:03 | 43.66739 | 77.20096 | 12981 ft | 300 kts | 111° |
| 2026-05-05 15:03 | 43.66000 | 77.22780 | 12573 ft | 298 kts | 111° |
| 2026-05-05 15:03 | 43.65264 | 77.25452 | 12165 ft | 296 kts | 111° |
| 2026-05-05 15:03 | 43.64535 | 77.28107 | 11770 ft | 295 kts | 111° |
| 2026-05-05 15:04 | 43.63807 | 77.30739 | 11384 ft | 293 kts | 111° |
| 2026-05-05 15:04 | 43.63088 | 77.33332 | 10995 ft | 291 kts | 111° |
| 2026-05-05 15:04 | 43.62364 | 77.35940 | 10601 ft | 290 kts | 111° |
| 2026-05-05 15:04 | 43.61648 | 77.38522 | 10351 ft | 284 kts | 112° |
| 2026-05-05 15:05 | 43.59066 | 77.42479 | 10118 ft | 285 kts | 156° |
| 2026-05-05 15:05 | 43.57131 | 77.43096 | 9717 ft | 292 kts | 179° |
| 2026-05-05 15:05 | 43.55162 | 77.42517 | 9261 ft | 294 kts | 204° |
| 2026-05-05 15:06 | 43.53527 | 77.40888 | 8826 ft | 287 kts | 228° |
| 2026-05-05 15:06 | 43.52331 | 77.38783 | 8397 ft | 273 kts | 234° |
| 2026-05-05 15:06 | 43.51274 | 77.36618 | 7737 ft | 276 kts | 236° |
| 2026-05-05 15:06 | 43.50197 | 77.34381 | 7038 ft | 282 kts | 236° |
| 2026-05-05 15:07 | 43.49109 | 77.32157 | 6600 ft | 273 kts | 236° |
| 2026-05-05 15:07 | 43.48415 | 77.30744 | 6361 ft | 264 kts | 236° |
| 2026-05-05 15:07 | 43.47421 | 77.28719 | 6031 ft | 246 kts | 236° |
| 2026-05-05 15:07 | 43.46491 | 77.26824 | 5716 ft | 233 kts | 236° |
| 2026-05-05 15:08 | 43.45347 | 77.24497 | 5329 ft | 208 kts | 236° |
| 2026-05-05 15:08 | 43.44821 | 77.23427 | 5176 ft | 192 kts | 236° |
| 2026-05-05 15:08 | 43.44120 | 77.22002 | 4922 ft | 173 kts | 237° |
| 2026-05-05 15:08 | 43.43468 | 77.20676 | 4703 ft | 163 kts | 236° |
| 2026-05-05 15:09 | 43.42842 | 77.19405 | 4491 ft | 158 kts | 236° |
| 2026-05-05 15:09 | 43.42229 | 77.18159 | 4288 ft | 156 kts | 236° |
| 2026-05-05 15:09 | 43.41624 | 77.16930 | 4082 ft | 154 kts | 236° |
| 2026-05-05 15:09 | 43.41025 | 77.15715 | 3887 ft | 153 kts | 235° |
| 2026-05-05 15:10 | 43.40429 | 77.14507 | 3687 ft | 152 kts | 235° |
| 2026-05-05 15:10 | 43.39836 | 77.13305 | 3493 ft | 151 kts | 235° |
| 2026-05-05 15:10 | 43.39250 | 77.12117 | 3297 ft | 150 kts | 234° |
| 2026-05-05 15:10 | 43.38666 | 77.10934 | 3068 ft | 149 kts | 233° |
| 2026-05-05 15:11 | 43.38083 | 77.09754 | 2846 ft | 149 kts | 233° |
| 2026-05-05 15:11 | 43.37498 | 77.08575 | 2687 ft | 148 kts | 234° |
| 2026-05-05 15:11 | 43.36908 | 77.07412 | 2482 ft | 148 kts | 234° |
| 2026-05-05 15:11 | 43.36343 | 77.06249 | 2296 ft | 148 kts | 236° |
| 2026-05-05 15:12 | 43.35795 | 77.05124 | 2232 ft | 127 kts | 235° |
| 2026-05-05 15:12 | 43.35366 | 77.04253 | 2232 ft | 95 kts | 236° |
| 2026-05-05 15:12 | 43.35162 | 77.03846 | 2232 ft | 31 kts | 235° |
| 2026-05-05 15:12 | 43.35047 | 77.03609 | 2233 ft | 29 kts | 237° |
| 2026-05-05 15:13 | 43.34936 | 77.03382 | 2233 ft | 28 kts | 236° |
| 2026-05-05 15:13 | 43.34833 | 77.03165 | 2230 ft | 19 kts | 238° |
| 2026-05-05 15:13 | 43.34785 | 77.03000 | 2232 ft | 19 kts | 259° |
| 2026-05-05 15:13 | 43.34778 | 77.02887 | 2231 ft | 12 kts | 266° |
| 2026-05-05 15:14 | 43.34774 | 77.02765 | 2232 ft | 13 kts | 268° |
| 2026-05-05 15:14 | 43.34772 | 77.02642 | 2234 ft | 13 kts | 267° |
| 2026-05-05 15:14 | 43.34768 | 77.02520 | 2235 ft | 13 kts | 271° |
| 2026-05-05 15:14 | 43.34772 | 77.02382 | 2231 ft | 17 kts | 271° |
| 2026-05-05 15:15 | 43.34784 | 77.02210 | 2227 ft | 10 kts | 273° |
| 2026-05-05 15:15 | 43.34788 | 77.02103 | 2227 ft | 12 kts | 273° |
| 2026-05-05 15:15 | 43.34794 | 77.01979 | 2226 ft | 14 kts | 274° |
| 2026-05-05 15:15 | 43.34802 | 77.01840 | 2223 ft | 15 kts | 275° |
| 2026-05-05 15:16 | 43.34811 | 77.01688 | 2224 ft | 17 kts | 274° |
| 2026-05-05 15:16 | 43.34816 | 77.01594 | 2222 ft | 10 kts | 274° |
| 2026-05-05 15:16 | 43.34818 | 77.01514 | 2226 ft | 7 kts | 266° |
| 2026-05-05 15:16 | 43.34802 | 77.01447 | 2225 ft | 8 kts | 248° |
| 2026-05-05 15:17 | 43.34779 | 77.01400 | 2223 ft | 6 kts | 215° |
| 2026-05-05 15:17 | 43.34753 | 77.01401 | 2222 ft | 2 kts | 171° |
| 2026-05-05 15:17 | 43.34734 | 77.01402 | 2224 ft | 3 kts | 192° |
| 2026-05-05 15:17 | 43.34713 | 77.01384 | 2222 ft | 4 kts | 220° |
| 2026-05-05 15:18 | 43.34697 | 77.01353 | 2226 ft | 4 kts | 239° |
| 2026-05-05 15:18 | 43.34685 | 77.01324 | 2224 ft | 1 kts | 243° |
| 2026-05-05 15:18 | 43.34685 | 77.01323 | 2224 ft | 0 kts | 243° |